Airfield :
LOGIN :

Register | Disclaimer

   EN    FR    IT 

 










Legend :    VFR   Marginal VFR   IFR   Intensive IFR   Very Intensive IFR
Visi :
Ceiling :
>= 8 km
>= 3000ft
5 to 8 km
1000 to 3000 ft
1500m to 5 km
500 to 1000 ft
800 to 1500m
200 to 500 ft
< 800m
< 200 ft
Symbols :   Thunderstorms  Fog  Heavy snow  Heavy precipitations  Wind > 20 kt
SIGMETs :     Misc.  Thunderstorms  Icing  Turbulence  Mountain Waves  Volcanic Ashes






- Airport Elevation : 1416 ft
- IATA code : ZRH


LSZH - Zurich

CURRENT METAR :
  • 020350Z AUTO VRB03KT 9999 BKN036 03/00 Q1019 NOSIG

EXPIRED METARs :
  • 020320Z AUTO 30003KT 9999 BKN037 02/01 Q1019 NOSIG
  • 020250Z AUTO 32004KT 9999 BKN036 02/01 Q1019 NOSIG
  • 020220Z AUTO 35004KT 9999 BKN036 03/00 Q1019 NOSIG
  • 020150Z AUTO 32004KT 9999 FEW036 03/01 Q1019 NOSIG
  • 020120Z AUTO 33005KT 9999 FEW036 03/00 Q1019 NOSIG
  • 020050Z AUTO 32004KT 9999 BKN037 03/00 Q1019 NOSIG

TAF TAF LSZH
Valid from the 02 at 03:00 until the 03 at 09:00 UTC


020225Z 0203/0309 32004KT 9999 BKN035 TX04/0213Z TN02/0205Z TN00/0301Z
BECMG 0222/0301 3000 BCFG BKN006
BECMG 0304/0306 04007KT 9999 BKN012
ATIS : +41 43 816 2295 (DEP) +41 43 816 2294 (ARR)



MET'MAP, your aeronautical weather chart ! - Copyright ORBIFLY December 2007 - Disclaimer

ORBIFLY MET'MAP TEAM :

Programming & Development : Alexandra Zaïnal
Original concept : Baudouin d'Aumeries
Technical & hardware support : Manuel Goepfert
Assistance : Marc-Olivier Méhu




SOURCES & CREDITS :

   NOAA